Au Train, MI

3:56 AM EDT on July 28, 2016 (GMT -0400)
MesoWest | | Change Station

Elev 609 ft 46.43 °N, 86.84 °W | Updated 36 minutes ago

Overcast
Overcast
61 °F
Feels Like 61 °F
N
1
Wind Variable Wind from WSW
Gusts 2.0 mph

Today
High -- | Low -- °F
--% Chance of Precip.
Yesterday
High -- | Low -- °F
Precip. -- in
Pressure 30.04 in
Visibility 10.0 miles
Clouds Scattered Clouds 4600 ft
Overcast 5000 ft
Dew Point 61 °F
Humidity 100%
Rainfall in
Snow Depth Not available.
6:24 AM 9:22 PM
Waning Crescent, 34% visible
METAR KSAW 280736Z AUTO 00000KT 10SM SCT046 OVC050 15/13 A3004 RMK AO2 T01500133
Pressure 30.04 in
Visibility 10.0 miles
Clouds Scattered Clouds 4600 ft
Overcast 5000 ft
Dew Point 61 °F
Humidity 100%
Rainfall in
Snow Depth Not available.
6:24 AM 9:22 PM
Waning Crescent, 34% visible
METAR KSAW 280736Z AUTO 00000KT 10SM SCT046 OVC050 15/13 A3004 RMK AO2 T01500133

10-Day Weather Forecast

Almanac

Astronomy

Jul. 28, 2016 Rise Set
Actual Time
Civil Twilight
Nautical Twilight
Astronomical Twilight
Moon
Length of Visible Light
Length of Day
Tomorrow will be .
, % of the Moon is Illuminated

Today's Extremes

State Highs State Lows

Community

WunderPhotos

Upload Photos

1,928,070 photos uploaded!

WunderBlog® & News

Nearby

Air Quality

  Air Quality AQ Index Pollutant
Not available.

Snow Depth

Station Depth Elevation

Earthquake Activity

City Distance Mag. Time & Date
Minimum magnitude displayed is 2.5.

Coastal Water Temperatures

Place Temperature

Stations

Nearby Weather Stations

Station Location Temp. Windchill Dew Point Humidity Wind Precip. Elev Updated Type
                   

Watches & Warnings

There are currently no watches in effect.